Time;durP1;ratioP1;P1;durP2;ratioP2;P2;SDS_P1;SDS_P2;PMS_P1;PMS_P2;Temp;Humidity;BMP_temperature;BMP_pressure;BME280_temperature;BME280_humidity;BME280_pressure;Samples;Min_cycle;Max_cycle;Signal;HPM_P1;HPM_P2
2024/03/09 00:00:39;;;;;;;1999.90;999.90;;;9.20;99.90;;;;;;5051143;28;20021;-83
2024/03/09 00:03:06;;;;;;;1999.90;999.90;;;9.10;99.90;;;;;;5036784;28;20036;-81
2024/03/09 00:05:32;;;;;;;1999.90;999.90;;;9.10;99.90;;;;;;5035196;28;20025;-81
2024/03/09 00:08:01;;;;;;;1999.90;999.90;;;9.10;99.90;;;;;;5035072;28;20518;-82
2024/03/09 00:10:28;;;;;;;1999.90;999.90;;;9.00;99.90;;;;;;5051430;28;20113;-82
2024/03/09 00:12:54;;;;;;;1999.90;999.90;;;9.00;99.90;;;;;;5035003;28;20041;-82
2024/03/09 00:15:23;;;;;;;1999.90;999.90;;;9.00;99.90;;;;;;5050392;28;20022;-81
2024/03/09 00:17:51;;;;;;;1999.90;999.90;;;9.00;99.90;;;;;;5049923;28;20017;-81
2024/03/09 00:20:26;;;;;;;1999.90;999.90;;;9.00;99.90;;;;;;5054532;28;20388;-83
2024/03/09 00:22:53;;;;;;;1999.90;999.90;;;9.00;99.90;;;;;;5056038;28;20024;-81
2024/03/09 00:25:22;;;;;;;1999.90;999.90;;;8.90;99.90;;;;;;5055002;28;20116;-80
2024/03/09 00:27:49;;;;;;;1999.90;999.90;;;8.90;99.90;;;;;;5053392;28;20063;-81
2024/03/09 00:30:21;;;;;;;1999.90;999.90;;;8.90;99.90;;;;;;5056733;28;20025;-80
2024/03/09 00:32:53;;;;;;;1999.90;999.90;;;8.90;99.90;;;;;;5053514;28;20429;-82
2024/03/09 00:35:24;;;;;;;1999.90;999.90;;;8.90;99.90;;;;;;5053240;28;20116;-83
2024/03/09 00:37:50;;;;;;;1999.90;999.90;;;8.90;99.90;;;;;;5055443;28;20082;-82
2024/03/09 00:40:17;;;;;;;1999.90;999.90;;;8.90;99.90;;;;;;5055063;28;20029;-81
2024/03/09 00:42:45;;;;;;;1999.90;999.90;;;9.00;99.90;;;;;;5054535;28;20116;-82
2024/03/09 00:45:13;;;;;;;1999.90;999.90;;;9.00;99.90;;;;;;5054608;28;20047;-82
2024/03/09 00:47:40;;;;;;;1999.90;999.90;;;9.00;99.90;;;;;;5053106;28;20048;-82
2024/03/09 00:50:08;;;;;;;1999.90;999.90;;;9.00;99.90;;;;;;5061694;28;20472;-82
2024/03/09 00:52:34;;;;;;;1999.90;999.90;;;9.00;99.90;;;;;;5052782;28;20073;-82
2024/03/09 00:55:00;;;;;;;1999.90;999.90;;;9.00;99.90;;;;;;5052920;28;20553;-82
2024/03/09 00:57:26;;;;;;;1999.90;999.90;;;9.00;99.90;;;;;;5054229;28;20029;-81
2024/03/09 00:59:55;;;;;;;1999.90;999.90;;;8.90;99.90;;;;;;5052949;28;20021;-82
2024/03/09 01:02:21;;;;;;;1999.90;999.90;;;8.90;99.90;;;;;;5053075;28;20036;-81
2024/03/09 01:04:51;;;;;;;1999.90;999.90;;;8.90;99.90;;;;;;5053196;28;20021;-81
2024/03/09 01:07:20;;;;;;;1999.90;999.90;;;8.90;99.90;;;;;;5052863;28;20391;-81
2024/03/09 01:09:49;;;;;;;1999.90;999.90;;;8.80;99.90;;;;;;5055248;28;20017;-81
2024/03/09 01:12:17;;;;;;;1999.90;999.90;;;8.70;99.90;;;;;;5053823;28;20040;-83
2024/03/09 01:14:47;;;;;;;1999.90;999.90;;;8.70;99.90;;;;;;5053949;28;20070;-83
2024/03/09 01:17:17;;;;;;;1999.90;999.90;;;8.70;99.90;;;;;;5054667;28;20507;-81
2024/03/09 01:19:45;;;;;;;1999.90;999.90;;;8.70;99.90;;;;;;5053584;28;20048;-81
2024/03/09 01:22:12;;;;;;;1999.90;999.90;;;8.70;99.90;;;;;;5053244;28;20079;-80
2024/03/09 01:24:41;;;;;;;1999.90;999.90;;;8.70;99.90;;;;;;5052439;28;20013;-80
2024/03/09 01:27:06;;;;;;;1999.90;999.90;;;8.70;99.90;;;;;;5052598;28;20492;-82
2024/03/09 01:29:32;;;;;;;1999.90;999.90;;;8.70;99.90;;;;;;5053270;28;20116;-81
2024/03/09 01:32:01;;;;;;;1999.90;999.90;;;8.60;99.90;;;;;;5053445;28;20036;-81
2024/03/09 01:34:27;;;;;;;1999.90;999.90;;;8.70;99.90;;;;;;5052850;28;20116;-83
2024/03/09 01:36:54;;;;;;;1999.90;999.90;;;8.60;99.90;;;;;;5056015;28;20503;-83
2024/03/09 01:39:25;;;;;;;1999.90;999.90;;;8.60;99.90;;;;;;5052393;28;20128;-80
2024/03/09 01:41:51;;;;;;;1999.90;999.90;;;8.60;99.90;;;;;;5055709;28;20037;-81
2024/03/09 01:44:17;;;;;;;1999.90;999.90;;;8.60;99.90;;;;;;5052141;28;20017;-81
2024/03/09 01:46:45;;;;;;;1999.90;999.90;;;8.60;99.90;;;;;;5052023;28;20052;-80
2024/03/09 01:49:11;;;;;;;1999.90;999.90;;;8.60;99.90;;;;;;5052339;28;20033;-80
2024/03/09 01:51:37;;;;;;;1999.90;999.90;;;8.50;99.90;;;;;;5051996;28;20028;-83
2024/03/09 01:54:10;;;;;;;1999.90;999.90;;;8.50;99.90;;;;;;5054389;28;20053;-81
2024/03/09 01:56:40;;;;;;;1999.90;999.90;;;8.60;99.90;;;;;;5052491;28;20040;-82
2024/03/09 01:59:09;;;;;;;1999.90;999.90;;;8.60;99.90;;;;;;5051409;28;20032;-81
2024/03/09 02:01:36;;;;;;;1999.90;999.90;;;8.60;99.90;;;;;;5059831;28;20033;-81
2024/03/09 02:04:04;;;;;;;1999.90;999.90;;;8.60;99.90;;;;;;5051985;28;20044;-81
2024/03/09 02:06:32;;;;;;;1999.90;999.90;;;8.60;99.90;;;;;;5051882;28;20025;-82
2024/03/09 02:08:58;;;;;;;1999.90;999.90;;;8.60;99.90;;;;;;5059077;28;20040;-81
2024/03/09 02:11:26;;;;;;;1999.90;999.90;;;8.60;99.90;;;;;;5051631;28;20033;-81
2024/03/09 02:13:52;;;;;;;1999.90;999.90;;;8.60;99.90;;;;;;5051691;28;20029;-81
2024/03/09 02:16:19;;;;;;;1999.90;999.90;;;8.60;99.90;;;;;;5054399;28;20503;-81
2024/03/09 02:18:48;;;;;;;1999.90;999.90;;;8.60;99.90;;;;;;5051354;28;20049;-81
2024/03/09 02:21:17;;;;;;;1999.90;999.90;;;8.60;99.90;;;;;;5054874;28;20021;-83
2024/03/09 02:23:47;;;;;;;1999.90;999.90;;;8.70;99.90;;;;;;5051961;28;20033;-81
2024/03/09 02:26:17;;;;;;;1999.90;999.90;;;8.80;99.90;;;;;;5052027;28;20483;-80
2024/03/09 02:28:53;;;;;;;1999.90;999.90;;;8.90;99.90;;;;;;5053716;28;20033;-80
2024/03/09 02:31:21;;;;;;;1999.90;999.90;;;8.80;99.90;;;;;;5052471;28;20025;-82
2024/03/09 02:33:52;;;;;;;1999.90;999.90;;;8.80;99.90;;;;;;5055004;28;20045;-80
2024/03/09 02:36:32;;;;;;;1999.90;999.90;;;8.80;99.90;;;;;;5055119;28;20028;-81
2024/03/09 02:38:59;;;;;;;1999.90;999.90;;;8.70;99.90;;;;;;5051593;28;20044;-80
2024/03/09 02:41:26;;;;;;;1999.90;999.90;;;8.70;99.90;;;;;;5053487;28;20033;-80
2024/03/09 02:43:53;;;;;;;1999.90;999.90;;;8.60;99.90;;;;;;5051434;28;20051;-80
2024/03/09 02:46:21;;;;;;;1999.90;999.90;;;8.60;99.90;;;;;;5052943;28;20488;-80
2024/03/09 02:48:48;;;;;;;1999.90;999.90;;;8.60;99.90;;;;;;5053163;28;20029;-79
2024/03/09 02:51:16;;;;;;;1999.90;999.90;;;8.70;99.90;;;;;;5052529;28;20021;-80
2024/03/09 02:53:45;;;;;;;1999.90;999.90;;;8.70;99.90;;;;;;5053522;28;20014;-80
2024/03/09 02:56:15;;;;;;;1999.90;999.90;;;8.70;99.90;;;;;;5052702;28;20542;-80
2024/03/09 02:58:41;;;;;;;1999.90;999.90;;;8.70;99.90;;;;;;5051288;28;20021;-81
2024/03/09 03:01:07;;;;;;;1999.90;999.90;;;8.70;99.90;;;;;;5056663;28;20177;-80
2024/03/09 03:06:18;;;;;;;1999.90;999.90;;;8.80;99.90;;;;;;5053804;28;20120;-80
2024/03/09 03:08:46;;;;;;;1999.90;999.90;;;8.80;99.90;;;;;;5056998;28;20403;-80
2024/03/09 03:11:14;;;;;;;1999.90;999.90;;;8.80;99.90;;;;;;5054957;28;20045;-80
2024/03/09 03:13:42;;;;;;;1999.90;999.90;;;8.80;99.90;;;;;;5055618;28;20025;-83
2024/03/09 03:16:17;;;;;;;1999.90;999.90;;;8.80;99.90;;;;;;5054802;28;20132;-79
2024/03/09 03:18:44;;;;;;;1999.90;999.90;;;8.90;99.90;;;;;;5050957;28;20052;-80
2024/03/09 03:21:14;;;;;;;1999.90;999.90;;;8.90;99.90;;;;;;5053043;28;20033;-79
2024/03/09 03:23:47;;;;;;;1999.90;999.90;;;8.90;99.90;;;;;;5035259;28;20069;-82
2024/03/09 03:26:17;;;;;;;1999.90;999.90;;;8.90;99.90;;;;;;5052942;28;20033;-83
2024/03/09 03:28:48;;;;;;;1999.90;999.90;;;9.00;99.90;;;;;;5051271;28;20017;-81
2024/03/09 03:31:20;;;;;;;1999.90;999.90;;;9.00;99.90;;;;;;5051149;28;20033;-80
2024/03/09 03:33:49;;;;;;;1999.90;999.90;;;9.00;99.90;;;;;;5036995;28;20022;-81
2024/03/09 03:36:20;;;;;;;1999.90;999.90;;;9.00;99.90;;;;;;5035773;28;20037;-81
2024/03/09 03:38:47;;;;;;;1999.90;999.90;;;9.10;99.90;;;;;;5035761;28;20180;-81
2024/03/09 03:41:15;;;;;;;1999.90;999.90;;;9.10;99.90;;;;;;5057057;28;20028;-80
2024/03/09 03:43:42;;;;;;;1999.90;999.90;;;9.10;99.90;;;;;;5054294;28;20041;-81
2024/03/09 03:46:09;;;;;;;1999.90;999.90;;;9.10;99.90;;;;;;5059507;28;20005;-81
2024/03/09 03:48:35;;;;;;;1999.90;999.90;;;9.10;99.90;;;;;;5063442;28;20056;-83
2024/03/09 03:51:01;;;;;;;1999.90;999.90;;;9.10;99.90;;;;;;5055439;28;20025;-82
2024/03/09 03:53:27;;;;;;;1999.90;999.90;;;9.10;99.90;;;;;;5058910;28;20017;-81
2024/03/09 03:55:53;;;;;;;1999.90;999.90;;;9.20;99.90;;;;;;5056721;28;20116;-81
2024/03/09 03:58:18;;;;;;;1999.90;999.90;;;9.20;99.90;;;;;;5054099;28;20551;-81
2024/03/09 04:00:45;;;;;;;1999.90;999.90;;;9.20;99.90;;;;;;5059758;28;20064;-81
2024/03/09 04:03:12;;;;;;;1999.90;999.90;;;9.20;99.90;;;;;;5053919;28;20028;-82
2024/03/09 04:05:38;;;;;;;1999.90;999.90;;;9.20;99.90;;;;;;5054830;28;20028;-82
2024/03/09 04:08:06;;;;;;;1999.90;999.90;;;9.20;99.90;;;;;;5056401;28;20037;-83
2024/03/09 04:10:33;;;;;;;1999.90;999.90;;;9.30;99.90;;;;;;5055296;28;20104;-81
2024/03/09 04:12:59;;;;;;;1999.90;999.90;;;9.30;99.90;;;;;;5056940;28;20048;-81
2024/03/09 04:15:26;;;;;;;1999.90;999.90;;;9.30;99.90;;;;;;5057988;28;20087;-81
2024/03/09 04:17:53;;;;;;;1999.90;999.90;;;9.30;99.90;;;;;;5053083;28;20549;-81
2024/03/09 04:20:18;;;;;;;1999.90;999.90;;;9.40;99.90;;;;;;5060851;28;20044;-80
2024/03/09 04:22:45;;;;;;;1999.90;999.90;;;9.40;99.90;;;;;;5054894;28;20033;-82
2024/03/09 04:25:11;;;;;;;1999.90;999.90;;;9.50;99.90;;;;;;5053535;28;20033;-81
2024/03/09 04:27:38;;;;;;;1999.90;999.90;;;9.50;99.90;;;;;;5054007;28;20021;-82
2024/03/09 04:30:06;;;;;;;1999.90;999.90;;;9.50;99.90;;;;;;5054040;28;20479;-81
2024/03/09 04:32:32;;;;;;;1999.90;999.90;;;9.60;99.90;;;;;;5053467;28;20127;-81
2024/03/09 04:34:58;;;;;;;1999.90;999.90;;;9.70;99.90;;;;;;5055446;28;20041;-81
2024/03/09 04:37:27;;;;;;;1999.90;999.90;;;9.70;99.90;;;;;;5053358;28;20070;-81
2024/03/09 04:39:58;;;;;;;1999.90;999.90;;;9.70;99.90;;;;;;5057150;28;20419;-81
2024/03/09 04:42:25;;;;;;;1999.90;999.90;;;9.80;99.90;;;;;;5059008;28;20034;-80
2024/03/09 04:44:53;;;;;;;1999.90;999.90;;;9.80;99.90;;;;;;5049907;28;20026;-80
2024/03/09 04:47:19;;;;;;;1999.90;999.90;;;9.90;99.90;;;;;;5066625;28;20484;-80
2024/03/09 04:49:47;;;;;;;1999.90;999.90;;;9.90;99.90;;;;;;5051316;28;20457;-83
2024/03/09 04:52:14;;;;;;;1999.90;999.90;;;9.90;99.90;;;;;;5049531;28;20041;-81
2024/03/09 04:54:43;;;;;;;1999.90;999.90;;;9.90;99.90;;;;;;5066338;28;20527;-80
2024/03/09 04:57:19;;;;;;;1999.90;999.90;;;10.00;99.90;;;;;;5035295;28;20056;-81
2024/03/09 04:59:45;;;;;;;1999.90;999.90;;;10.00;99.90;;;;;;5034370;28;20032;-79
2024/03/09 05:02:11;;;;;;;1999.90;999.90;;;10.10;99.90;;;;;;5035787;28;20037;-80
2024/03/09 05:04:37;;;;;;;1999.90;999.90;;;10.10;99.90;;;;;;5066138;28;20029;-82
2024/03/09 05:07:03;;;;;;;1999.90;999.90;;;10.10;99.90;;;;;;5066136;28;20377;-81
2024/03/09 05:09:30;;;;;;;1999.90;999.90;;;10.10;99.90;;;;;;5052649;28;20405;-81
2024/03/09 05:11:57;;;;;;;1999.90;999.90;;;10.10;99.90;;;;;;5049328;28;20385;-81
2024/03/09 05:14:23;;;;;;;1999.90;999.90;;;10.20;99.90;;;;;;5049684;28;20028;-81
2024/03/09 05:16:50;;;;;;;1999.90;999.90;;;10.20;99.90;;;;;;5071572;28;20029;-82
2024/03/09 05:19:17;;;;;;;1999.90;999.90;;;10.20;99.90;;;;;;5052173;28;20045;-81
2024/03/09 05:21:44;;;;;;;1999.90;999.90;;;10.20;99.90;;;;;;5054178;28;20021;-80
2024/03/09 05:24:10;;;;;;;1999.90;999.90;;;10.20;99.90;;;;;;5052725;28;20036;-81
2024/03/09 05:26:36;;;;;;;1999.90;999.90;;;10.20;99.90;;;;;;5052684;28;20025;-81
2024/03/09 05:29:02;;;;;;;1999.90;999.90;;;10.20;99.90;;;;;;5053668;28;20545;-81
2024/03/09 05:31:30;;;;;;;1999.90;999.90;;;10.20;99.90;;;;;;5051741;28;20037;-79
2024/03/09 05:33:56;;;;;;;1999.90;999.90;;;10.20;99.90;;;;;;5055669;28;20028;-81
2024/03/09 05:36:23;;;;;;;1999.90;999.90;;;10.20;99.90;;;;;;5056371;28;20033;-81
2024/03/09 05:38:49;;;;;;;1999.90;999.90;;;10.20;99.90;;;;;;5053536;28;20033;-82
2024/03/09 05:41:16;;;;;;;1999.90;999.90;;;10.30;99.90;;;;;;5054294;28;20024;-81
2024/03/09 05:43:48;;;;;;;1999.90;999.90;;;10.30;99.90;;;;;;5052291;28;20025;-81
2024/03/09 05:46:15;;;;;;;1999.90;999.90;;;10.30;99.90;;;;;;5053647;28;20032;-81
2024/03/09 05:48:45;;;;;;;1999.90;999.90;;;10.30;99.90;;;;;;5053944;28;20060;-82
2024/03/09 05:51:11;;;;;;;1999.90;999.90;;;10.30;99.90;;;;;;5053267;28;20025;-82
2024/03/09 05:53:38;;;;;;;1999.90;999.90;;;10.30;99.90;;;;;;5054811;28;20025;-81
2024/03/09 05:56:07;;;;;;;1999.90;999.90;;;10.30;99.90;;;;;;5056608;28;20535;-82
2024/03/09 05:58:32;;;;;;;1999.90;999.90;;;10.30;99.90;;;;;;5052005;28;20074;-82
2024/03/09 06:00:58;;;;;;;1999.90;999.90;;;10.40;99.90;;;;;;5055133;28;20028;-82
2024/03/09 06:03:25;;;;;;;1999.90;999.90;;;10.40;99.90;;;;;;5053175;28;20090;-82
2024/03/09 06:05:55;;;;;;;1999.90;999.90;;;10.40;99.90;;;;;;5053117;28;20423;-82
2024/03/09 06:08:21;;;;;;;1999.90;999.90;;;10.50;99.90;;;;;;5061311;28;20071;-81
2024/03/09 06:10:50;;;;;;;1999.90;999.90;;;10.50;99.90;;;;;;5055776;28;20400;-82
2024/03/09 06:13:19;;;;;;;1999.90;999.90;;;10.50;99.90;;;;;;5053269;28;20029;-82
2024/03/09 06:15:47;;;;;;;1999.90;999.90;;;10.60;99.90;;;;;;5052945;28;20021;-81
2024/03/09 06:18:17;;;;;;;1999.90;999.90;;;10.60;99.90;;;;;;5051517;28;20029;-81
2024/03/09 06:20:43;;;;;;;1999.90;999.90;;;10.60;99.90;;;;;;5053204;28;20021;-81
2024/03/09 06:23:09;;;;;;;1999.90;999.90;;;10.60;99.90;;;;;;5053379;28;20025;-81
2024/03/09 06:25:35;;;;;;;1999.90;999.90;;;10.60;99.90;;;;;;5051920;28;20120;-81
2024/03/09 06:28:07;;;;;;;1999.90;999.90;;;10.60;99.90;;;;;;5051611;28;20128;-81
2024/03/09 06:30:35;;;;;;;1999.90;999.90;;;10.70;99.90;;;;;;5055558;28;20021;-80
2024/03/09 06:33:01;;;;;;;1999.90;999.90;;;10.70;99.90;;;;;;5053202;28;20116;-81
2024/03/09 06:35:26;;;;;;;1999.90;999.90;;;10.70;99.90;;;;;;5054511;28;20028;-81
2024/03/09 06:38:00;;;;;;;1999.90;999.90;;;10.70;99.90;;;;;;5054401;28;20037;-82
2024/03/09 06:40:27;;;;;;;1999.90;999.90;;;10.70;99.90;;;;;;5052476;28;20040;-83
2024/03/09 06:43:01;;;;;;;1999.90;999.90;;;10.70;99.90;;;;;;5057327;28;20053;-80
2024/03/09 06:45:27;;;;;;;1999.90;999.90;;;10.70;99.90;;;;;;5055411;28;20021;-80
2024/03/09 06:47:54;;;;;;;1999.90;999.90;;;10.80;99.90;;;;;;5055398;28;20040;-81
2024/03/09 06:50:20;;;;;;;1999.90;999.90;;;10.80;99.90;;;;;;5056326;28;20052;-81
2024/03/09 06:52:46;;;;;;;1999.90;999.90;;;10.80;99.90;;;;;;5055310;28;20069;-82
2024/03/09 06:55:15;;;;;;;1999.90;999.90;;;10.80;99.90;;;;;;5056446;28;20032;-81
2024/03/09 06:57:41;;;;;;;1999.90;999.90;;;10.80;99.90;;;;;;5057698;28;20028;-81
2024/03/09 07:00:14;;;;;;;1999.90;999.90;;;10.90;99.90;;;;;;5055172;28;20422;-82
2024/03/09 07:02:41;;;;;;;1999.90;999.90;;;10.90;99.90;;;;;;5054288;28;20033;-81
2024/03/09 07:05:10;;;;;;;1999.90;999.90;;;10.90;99.90;;;;;;5057655;28;20028;-81
2024/03/09 07:07:40;;;;;;;1999.90;999.90;;;10.90;99.90;;;;;;5054783;28;20109;-81
2024/03/09 07:10:09;;;;;;;1999.90;999.90;;;10.90;99.90;;;;;;5055948;28;20035;-81
2024/03/09 07:12:39;;;;;;;1999.90;999.90;;;10.90;99.90;;;;;;5054985;28;20029;-81
2024/03/09 07:15:08;;;;;;;1999.90;999.90;;;10.90;99.90;;;;;;5054860;28;20021;-82
2024/03/09 07:17:34;;;;;;;1999.90;999.90;;;10.90;99.90;;;;;;5055014;28;20036;-81
2024/03/09 07:20:10;;;;;;;1999.90;999.90;;;10.90;99.90;;;;;;5055820;28;20041;-79
2024/03/09 07:22:37;;;;;;;1999.90;999.90;;;10.90;99.90;;;;;;5054657;28;20021;-81
2024/03/09 07:25:05;;;;;;;1999.90;999.90;;;10.90;99.90;;;;;;5057649;28;20028;-82
2024/03/09 07:27:30;;;;;;;1999.90;999.90;;;10.90;99.90;;;;;;5056184;28;20484;-81
2024/03/09 07:29:57;;;;;;;1999.90;999.90;;;10.90;99.90;;;;;;5055790;28;20032;-82
2024/03/09 07:32:23;;;;;;;1999.90;999.90;;;10.90;99.90;;;;;;5061232;28;20037;-81
2024/03/09 07:34:49;;;;;;;1999.90;999.90;;;10.90;99.90;;;;;;5055852;28;20017;-80
2024/03/09 07:37:14;;;;;;;1999.90;999.90;;;10.90;99.90;;;;;;5054527;28;20067;-82
2024/03/09 07:39:40;;;;;;;1999.90;999.90;;;10.90;99.90;;;;;;5063431;28;20033;-82
2024/03/09 07:42:09;;;;;;;1999.90;999.90;;;11.00;99.90;;;;;;5050819;28;20450;-80
2024/03/09 07:44:35;;;;;;;1999.90;999.90;;;11.00;99.90;;;;;;5051243;28;20032;-81
2024/03/09 07:47:01;;;;;;;1999.90;999.90;;;11.00;99.90;;;;;;5043640;28;20108;-80
2024/03/09 07:49:27;;;;;;;1999.90;999.90;;;11.00;99.90;;;;;;5056121;28;20464;-80
2024/03/09 07:51:53;;;;;;;1999.90;999.90;;;11.00;99.90;;;;;;5054500;28;20037;-81
2024/03/09 07:54:19;;;;;;;1999.90;999.90;;;11.00;99.90;;;;;;5057653;28;20021;-81
2024/03/09 07:56:45;;;;;;;1999.90;999.90;;;10.90;99.90;;;;;;5055714;28;20025;-81
2024/03/09 07:59:11;;;;;;;1999.90;999.90;;;10.90;99.90;;;;;;5058833;28;20073;-81
2024/03/09 08:01:38;;;;;;;1999.90;999.90;;;10.80;99.90;;;;;;5054263;28;20063;-81
2024/03/09 08:04:04;;;;;;;1999.90;999.90;;;10.80;99.90;;;;;;5054239;28;20065;-81
2024/03/09 08:06:30;;;;;;;1999.90;999.90;;;10.80;99.90;;;;;;5057367;28;20026;-82
2024/03/09 08:08:56;;;;;;;1999.90;999.90;;;10.80;99.90;;;;;;5054935;28;20020;-81
2024/03/09 08:11:23;;;;;;;1999.90;999.90;;;10.70;99.90;;;;;;5053695;28;20400;-81
2024/03/09 08:13:49;;;;;;;1999.90;999.90;;;10.70;99.90;;;;;;5055920;28;20052;-81
2024/03/09 08:16:15;;;;;;;1999.90;999.90;;;10.60;99.90;;;;;;5053736;28;20029;-82
2024/03/09 08:18:40;;;;;;;1999.90;999.90;;;10.60;99.90;;;;;;5053318;28;20049;-81
2024/03/09 08:21:07;;;;;;;1999.90;999.90;;;10.60;99.90;;;;;;5054968;28;20035;-81
2024/03/09 08:23:34;;;;;;;1999.90;999.90;;;10.60;99.90;;;;;;5053239;28;20032;-82
2024/03/09 08:26:06;;;;;;;1999.90;999.90;;;10.70;99.90;;;;;;5054961;28;20455;-82
2024/03/09 08:28:32;;;;;;;1999.90;999.90;;;10.70;99.90;;;;;;5058724;28;20087;-81
2024/03/09 08:30:59;;;;;;;1999.90;999.90;;;10.70;99.90;;;;;;5053336;28;20079;-80
2024/03/09 08:33:25;;;;;;;1999.90;999.90;;;10.70;99.90;;;;;;5058430;28;20009;-80
2024/03/09 08:35:55;;;;;;;1999.90;999.90;;;10.50;99.90;;;;;;5055163;28;20029;-80
2024/03/09 08:38:21;;;;;;;1999.90;999.90;;;10.20;99.90;;;;;;5053411;28;20394;-81
2024/03/09 08:40:49;;;;;;;1999.90;999.90;;;10.20;99.90;;;;;;5050106;28;20113;-83
2024/03/09 08:43:15;;;;;;;1999.90;999.90;;;10.00;99.90;;;;;;5034701;28;20025;-81
2024/03/09 08:45:42;;;;;;;1999.90;999.90;;;9.80;99.90;;;;;;5035170;28;20109;-83
2024/03/09 08:48:11;;;;;;;1999.90;999.90;;;9.70;99.90;;;;;;5050579;28;20037;-81
2024/03/09 08:50:38;;;;;;;1999.90;999.90;;;9.80;99.90;;;;;;5050087;28;20075;-81
2024/03/09 08:53:04;;;;;;;1999.90;999.90;;;9.90;99.90;;;;;;5049644;28;20033;-81
2024/03/09 08:55:32;;;;;;;1999.90;999.90;;;10.00;99.90;;;;;;5038593;28;20049;-81
2024/03/09 08:58:01;;;;;;;1999.90;999.90;;;9.90;99.90;;;;;;5034022;28;20439;-81
2024/03/09 09:00:27;;;;;;;1999.90;999.90;;;9.80;99.90;;;;;;5036792;28;20025;-81
2024/03/09 09:02:56;;;;;;;1999.90;999.90;;;9.80;99.90;;;;;;5034828;28;20104;-81
2024/03/09 09:05:22;;;;;;;1999.90;999.90;;;9.90;99.90;;;;;;5032924;28;20057;-83
2024/03/09 09:07:48;;;;;;;1999.90;999.90;;;10.10;99.90;;;;;;5034358;28;20431;-82
2024/03/09 09:10:16;;;;;;;1999.90;999.90;;;10.00;99.90;;;;;;5034065;28;20018;-81
2024/03/09 09:12:43;;;;;;;1999.90;999.90;;;9.80;99.90;;;;;;5033943;28;20465;-81
2024/03/09 09:15:12;;;;;;;1999.90;999.90;;;9.70;99.90;;;;;;5050578;28;20018;-82
2024/03/09 09:17:40;;;;;;;1999.90;999.90;;;9.40;99.90;;;;;;5043725;28;20028;-82
2024/03/09 09:20:10;;;;;;;1999.90;999.90;;;9.40;99.90;;;;;;5052170;28;20067;-82
2024/03/09 09:22:37;;;;;;;1999.90;999.90;;;9.20;99.90;;;;;;5054693;28;20029;-81
2024/03/09 09:25:03;;;;;;;1999.90;999.90;;;9.30;99.90;;;;;;5052455;28;20025;-81
2024/03/09 09:27:29;;;;;;;1999.90;999.90;;;9.30;99.90;;;;;;5058641;28;20020;-81
2024/03/09 09:29:55;;;;;;;1999.90;999.90;;;9.30;99.90;;;;;;5051301;28;20032;-81
2024/03/09 09:32:23;;;;;;;1999.90;999.90;;;9.40;99.90;;;;;;5052254;28;20033;-81
2024/03/09 09:34:49;;;;;;;1999.90;999.90;;;9.40;99.90;;;;;;5053855;28;20025;-83
2024/03/09 09:37:15;;;;;;;1999.90;999.90;;;9.40;99.90;;;;;;5053416;28;20021;-81
2024/03/09 09:39:42;;;;;;;1999.90;999.90;;;9.40;99.90;;;;;;5052276;28;20037;-81
2024/03/09 09:42:11;;;;;;;1999.90;999.90;;;9.30;99.90;;;;;;5054043;28;20041;-83
2024/03/09 09:44:37;;;;;;;1999.90;999.90;;;9.20;99.90;;;;;;5052101;28;20048;-81
2024/03/09 09:47:02;;;;;;;1999.90;999.90;;;9.20;99.90;;;;;;5056139;28;20019;-81
2024/03/09 09:49:29;;;;;;;1999.90;999.90;;;9.10;99.90;;;;;;5053336;28;20070;-82
2024/03/09 09:51:58;;;;;;;1999.90;999.90;;;9.00;99.90;;;;;;5051979;28;20045;-81
2024/03/09 09:54:26;;;;;;;1999.90;999.90;;;9.00;99.90;;;;;;5052831;28;20040;-82
2024/03/09 09:56:58;;;;;;;1999.90;999.90;;;9.00;99.90;;;;;;5052217;28;20086;-81
2024/03/09 09:59:30;;;;;;;1999.90;999.90;;;9.00;99.90;;;;;;5052803;28;20025;-81
2024/03/09 10:01:55;;;;;;;1999.90;999.90;;;9.10;99.90;;;;;;5052752;28;20025;-81
2024/03/09 10:04:21;;;;;;;1999.90;999.90;;;9.30;99.90;;;;;;5053493;28;20082;-81
2024/03/09 10:06:47;;;;;;;1999.90;999.90;;;9.40;99.90;;;;;;5054809;28;20376;-81
2024/03/09 10:09:34;;;;;;;1999.90;999.90;;;9.50;99.90;;;;;;5051662;28;20429;-81
2024/03/09 10:12:00;;;;;;;1999.90;999.90;;;9.60;99.90;;;;;;5053033;28;20083;-82
2024/03/09 10:14:32;;;;;;;1999.90;999.90;;;9.90;99.90;;;;;;5058396;28;20032;-82
2024/03/09 10:17:06;;;;;;;1999.90;999.90;;;10.30;99.90;;;;;;5055105;28;20064;-81
2024/03/09 10:19:34;;;;;;;1999.90;999.90;;;10.70;99.90;;;;;;5056429;28;20052;-83
2024/03/09 10:22:00;;;;;;;1999.90;999.90;;;10.50;99.90;;;;;;5057486;28;20029;-80
2024/03/09 10:24:26;;;;;;;1999.90;999.90;;;10.40;99.90;;;;;;5056110;28;20032;-81
2024/03/09 10:26:54;;;;;;;1999.90;999.90;;;10.40;99.90;;;;;;5057751;28;20021;-81
2024/03/09 10:29:21;;;;;;;1999.90;999.90;;;10.40;99.90;;;;;;5055807;28;20082;-81
2024/03/09 10:31:50;;;;;;;1999.90;999.90;;;10.30;99.90;;;;;;5055734;28;20025;-84
2024/03/09 10:34:16;;;;;;;1999.90;999.90;;;10.60;99.90;;;;;;5043013;28;20080;-81
2024/03/09 10:36:43;;;;;;;1999.90;999.90;;;10.60;99.90;;;;;;5057004;28;20025;-81
2024/03/09 10:39:09;;;;;;;1999.90;999.90;;;10.70;99.90;;;;;;5063343;28;20044;-80
2024/03/09 10:41:35;;;;;;;1999.90;999.90;;;10.80;99.90;;;;;;5055449;28;20033;-81
2024/03/09 10:44:02;;;;;;;1999.90;999.90;;;10.50;99.90;;;;;;5055589;28;20423;-82
2024/03/09 10:46:29;;;;;;;1999.90;999.90;;;10.60;99.90;;;;;;5057030;28;20503;-81
2024/03/09 10:48:57;;;;;;;1999.90;999.90;;;10.20;99.90;;;;;;5055121;28;20052;-83
2024/03/09 10:51:50;;;;;;;1999.90;999.90;;;10.30;99.90;;;;;;5055689;28;20055;-81
2024/03/09 10:54:21;;;;;;;1999.90;999.90;;;10.10;99.90;;;;;;5055885;28;20056;-81
2024/03/09 10:56:51;;;;;;;1999.90;999.90;;;9.90;99.90;;;;;;5055225;28;20025;-83
2024/03/09 10:59:22;;;;;;;1999.90;999.90;;;10.10;99.90;;;;;;5064035;28;20021;-81
2024/03/09 11:01:49;;;;;;;1999.90;999.90;;;10.00;99.90;;;;;;5055033;28;20017;-81
2024/03/09 11:04:17;;;;;;;1999.90;999.90;;;9.90;99.90;;;;;;5055097;28;20075;-81
2024/03/09 11:06:45;;;;;;;1999.90;999.90;;;9.90;99.90;;;;;;5056734;28;20021;-81
2024/03/09 11:09:13;;;;;;;1999.90;999.90;;;9.80;99.90;;;;;;5055288;28;20430;-85
2024/03/09 11:11:40;;;;;;;1999.90;999.90;;;9.70;99.90;;;;;;5056401;28;20028;-82
2024/03/09 11:14:06;;;;;;;1999.90;999.90;;;9.70;99.90;;;;;;5057133;28;20022;-81
2024/03/09 11:16:32;;;;;;;1999.90;999.90;;;9.80;99.90;;;;;;5055919;28;20395;-81
2024/03/09 11:19:01;;;;;;;1999.90;999.90;;;9.70;99.90;;;;;;5054382;28;20048;-81
2024/03/09 11:21:35;;;;;;;1999.90;999.90;;;9.60;99.90;;;;;;5054847;28;20061;-83
2024/03/09 11:24:08;;;;;;;1999.90;999.90;;;9.70;99.90;;;;;;5034931;28;20443;-81
2024/03/09 11:26:40;;;;;;;1999.90;999.90;;;9.70;99.90;;;;;;5039287;28;20040;-80
2024/03/09 11:29:10;;;;;;;1999.90;999.90;;;9.80;99.90;;;;;;5048001;28;20040;-82
2024/03/09 11:31:40;;;;;;;1999.90;999.90;;;9.70;99.90;;;;;;5055831;28;20076;-81
2024/03/09 11:34:08;;;;;;;1999.90;999.90;;;9.60;99.90;;;;;;5056562;28;20041;-81
2024/03/09 11:36:53;;;;;;;1999.90;999.90;;;9.60;99.90;;;;;;5055869;28;20021;-80
2024/03/09 11:39:28;;;;;;;1999.90;999.90;;;9.50;99.90;;;;;;5056047;28;20043;-81
2024/03/09 11:41:57;;;;;;;1999.90;999.90;;;9.40;99.90;;;;;;5057169;28;20544;-80
2024/03/09 11:44:26;;;;;;;1999.90;999.90;;;9.30;99.90;;;;;;5054450;28;20033;-81
2024/03/09 11:46:53;;;;;;;1999.90;999.90;;;9.30;99.90;;;;;;5055968;28;20033;-82
2024/03/09 11:49:18;;;;;;;1999.90;999.90;;;9.40;99.90;;;;;;5055658;28;20088;-81
2024/03/09 11:51:44;;;;;;;1999.90;999.90;;;9.40;99.90;;;;;;5054160;28;20506;-81
2024/03/09 11:54:16;;;;;;;1999.90;999.90;;;9.50;99.90;;;;;;5058279;28;20036;-82
2024/03/09 11:56:41;;;;;;;1999.90;999.90;;;9.60;99.90;;;;;;5054097;28;20029;-83
2024/03/09 11:59:10;;;;;;;1999.90;999.90;;;9.60;99.90;;;;;;5054150;28;20601;-80
2024/03/09 12:01:37;;;;;;;1999.90;999.90;;;9.60;99.90;;;;;;5067445;28;20025;-82
2024/03/09 12:04:03;;;;;;;1999.90;999.90;;;9.50;99.90;;;;;;5054062;28;20021;-80
2024/03/09 12:06:30;;;;;;;1999.90;999.90;;;9.40;99.90;;;;;;5053876;28;20028;-80
2024/03/09 12:08:57;;;;;;;1999.90;999.90;;;9.40;99.90;;;;;;5061920;28;20033;-81